Time;durP1;ratioP1;P1;durP2;ratioP2;P2;SDS_P1;SDS_P2;PMS_P1;PMS_P2;Temp;Humidity;BMP_temperature;BMP_pressure;BME280_temperature;BME280_humidity;BME280_pressure;Samples;Min_cycle;Max_cycle;Signal;HPM_P1;HPM_P2
2023/01/20 00:02:16;;;;;;;2.67;1.70;;;12.80;49.00;;;;;;5085856;27;45397;-69
2023/01/20 00:04:43;;;;;;;2.42;1.83;;;12.80;49.00;;;;;;5086486;27;45305;-69
2023/01/20 00:07:10;;;;;;;1.80;1.70;;;12.80;49.00;;;;;;5089549;27;45181;-69
2023/01/20 00:09:37;;;;;;;3.10;2.13;;;12.80;49.00;;;;;;5089038;27;46372;-69
2023/01/20 00:12:04;;;;;;;1.90;1.70;;;12.80;49.00;;;;;;5089148;27;45320;-69
2023/01/20 00:14:36;;;;;;;3.35;1.67;;;12.80;49.00;;;;;;5089438;27;45334;-69
2023/01/20 00:17:04;;;;;;;2.50;1.92;;;12.80;48.90;;;;;;5089461;27;45392;-69
2023/01/20 00:19:31;;;;;;;4.05;2.40;;;12.80;49.00;;;;;;5088894;27;45404;-69
2023/01/20 00:21:57;;;;;;;2.90;2.13;;;12.80;49.00;;;;;;5089046;27;45256;-69
2023/01/20 00:24:24;;;;;;;2.45;1.85;;;12.80;48.90;;;;;;5088632;27;45192;-69
2023/01/20 00:26:51;;;;;;;2.28;1.98;;;12.80;48.90;;;;;;5089290;27;45569;-69
2023/01/20 00:29:18;;;;;;;3.55;1.70;;;12.80;49.00;;;;;;5088857;27;46695;-69
2023/01/20 00:31:45;;;;;;;2.40;2.15;;;12.80;49.00;;;;;;5088991;27;45350;-69
2023/01/20 00:34:13;;;;;;;2.58;1.90;;;12.80;48.90;;;;;;5089187;27;45367;-69
2023/01/20 00:36:40;;;;;;;2.15;1.77;;;12.80;49.00;;;;;;5086621;27;45183;-70
2023/01/20 00:39:07;;;;;;;2.55;1.58;;;12.80;49.50;;;;;;5088652;27;45547;-69
2023/01/20 00:41:34;;;;;;;2.85;2.00;;;12.80;48.90;;;;;;5088709;27;45253;-69
2023/01/20 00:44:00;;;;;;;3.03;2.20;;;12.80;48.90;;;;;;5088846;27;45283;-68
2023/01/20 00:46:27;;;;;;;1.77;1.63;;;12.80;49.00;;;;;;5088930;27;45328;-69
2023/01/20 00:48:54;;;;;;;2.15;1.73;;;12.80;49.50;;;;;;5088508;27;46512;-69
2023/01/20 00:51:22;;;;;;;3.17;1.70;;;12.80;48.90;;;;;;5088623;27;45229;-69
2023/01/20 00:53:49;;;;;;;1.98;1.60;;;12.80;48.90;;;;;;5088654;27;45279;-69
2023/01/20 00:56:16;;;;;;;3.00;1.58;;;12.80;48.90;;;;;;5088907;27;45287;-70
2023/01/20 00:58:44;;;;;;;3.35;1.75;;;12.80;48.90;;;;;;5088274;27;46398;-69
2023/01/20 01:01:10;;;;;;;3.67;1.83;;;12.80;48.90;;;;;;5088477;27;45323;-69
2023/01/20 01:03:37;;;;;;;2.43;1.60;;;12.80;48.90;;;;;;5088650;27;45164;-69
2023/01/20 01:06:08;;;;;;;2.60;1.92;;;12.80;48.90;;;;;;5088603;27;45427;-69
2023/01/20 01:08:36;;;;;;;2.75;1.88;;;12.80;48.90;;;;;;5088213;27;45222;-69
2023/01/20 01:11:03;;;;;;;3.87;1.90;;;12.80;48.90;;;;;;5088274;27;45494;-68
2023/01/20 01:13:31;;;;;;;1.75;1.60;;;12.80;48.90;;;;;;5088385;27;45304;-67
2023/01/20 01:15:57;;;;;;;3.33;1.80;;;12.80;48.90;;;;;;5087871;27;45458;-69
2023/01/20 01:18:24;;;;;;;1.60;1.50;;;12.80;48.90;;;;;;5087765;27;46720;-69
2023/01/20 01:20:51;;;;;;;1.77;1.42;;;12.80;48.90;;;;;;5088140;27;45280;-68
2023/01/20 01:23:18;;;;;;;1.88;1.50;;;12.80;48.90;;;;;;5088429;27;45126;-68
2023/01/20 01:25:46;;;;;;;3.22;2.00;;;12.80;48.90;;;;;;5088271;27;45366;-69
2023/01/20 01:28:13;;;;;;;3.33;2.10;;;12.90;48.90;;;;;;5088049;27;47362;-68
2023/01/20 01:30:40;;;;;;;3.13;1.70;;;12.80;48.90;;;;;;5088020;27;45173;-68
2023/01/20 01:33:06;;;;;;;2.00;1.73;;;12.80;48.90;;;;;;5088166;27;45199;-68
2023/01/20 01:35:33;;;;;;;2.47;1.55;;;12.90;48.90;;;;;;5088228;27;45415;-68
2023/01/20 01:38:00;;;;;;;2.38;1.60;;;12.90;48.90;;;;;;5087748;27;45346;-68
2023/01/20 01:40:27;;;;;;;1.55;1.45;;;12.90;48.90;;;;;;5087829;27;45275;-67
2023/01/20 01:42:55;;;;;;;1.77;1.38;;;12.90;48.80;;;;;;5087985;27;45340;-68
2023/01/20 01:45:24;;;;;;;1.60;1.40;;;12.90;48.80;;;;;;5088080;27;45183;-68
2023/01/20 01:47:54;;;;;;;1.45;1.35;;;12.90;48.80;;;;;;5087549;27;46403;-68
2023/01/20 01:50:23;;;;;;;1.60;1.50;;;12.90;48.80;;;;;;5087705;27;45192;-67
2023/01/20 01:52:51;;;;;;;2.45;1.63;;;12.90;48.80;;;;;;5087836;27;45274;-68
2023/01/20 01:55:18;;;;;;;1.27;1.20;;;12.90;48.80;;;;;;5087868;27;45392;-68
2023/01/20 01:57:45;;;;;;;1.38;1.27;;;12.90;48.80;;;;;;5087741;27;45183;-68
2023/01/20 02:00:13;;;;;;;1.73;1.47;;;12.90;49.40;;;;;;5087518;27;45324;-67
2023/01/20 02:02:42;;;;;;;1.77;1.67;;;12.90;48.80;;;;;;5087733;27;45310;-68
2023/01/20 02:05:10;;;;;;;1.98;1.30;;;12.90;48.80;;;;;;5087691;27;45276;-68
2023/01/20 02:07:37;;;;;;;1.43;1.20;;;12.90;48.80;;;;;;5087271;27;47656;-68
2023/01/20 02:10:04;;;;;;;1.92;1.20;;;12.90;48.80;;;;;;5087439;27;45432;-68
2023/01/20 02:12:31;;;;;;;1.30;1.20;;;12.90;48.80;;;;;;5087540;27;45297;-68
2023/01/20 02:14:58;;;;;;;1.70;1.50;;;12.90;48.80;;;;;;5087632;27;45462;-68
2023/01/20 02:17:29;;;;;;;1.75;1.52;;;12.90;48.80;;;;;;5087132;27;45252;-67
2023/01/20 02:20:21;;;;;;;1.30;1.20;;;12.90;48.80;;;;;;5087190;27;45457;-68
2023/01/20 02:22:48;;;;;;;2.33;1.40;;;12.90;48.80;;;;;;5087404;28;45266;-67
2023/01/20 02:25:55;;;;;;;1.90;1.53;;;12.90;48.80;;;;;;5087145;27;45407;-68
2023/01/20 02:28:36;;;;;;;1.73;1.50;;;12.90;48.80;;;;;;5086910;27;47241;-68
2023/01/20 02:31:25;;;;;;;2.03;1.33;;;12.90;48.80;;;;;;5087034;27;45138;-67
2023/01/20 02:33:53;;;;;;;3.08;1.50;;;12.90;48.80;;;;;;5087155;27;45312;-67
2023/01/20 02:36:41;;;;;;;1.20;1.10;;;12.90;48.80;;;;;;5052725;27;45412;-68
2023/01/20 02:39:11;;;;;;;1.92;1.30;;;12.90;48.80;;;;;;5086782;27;46427;-70
2023/01/20 02:41:38;;;;;;;2.20;1.50;;;12.90;48.80;;;;;;5086971;27;45245;-67
2023/01/20 02:44:09;;;;;;;2.63;1.50;;;12.90;48.80;;;;;;5086981;27;45157;-67
2023/01/20 02:46:37;;;;;;;1.43;1.17;;;12.90;48.80;;;;;;5086991;27;45486;-68
2023/01/20 02:49:09;;;;;;;1.70;1.60;;;12.90;48.80;;;;;;5086679;27;47371;-68
2023/01/20 02:51:38;;;;;;;1.42;1.17;;;12.90;48.80;;;;;;5086729;27;45305;-70
2023/01/20 02:54:06;;;;;;;1.73;1.07;;;12.90;48.80;;;;;;5086951;27;45201;-69
2023/01/20 02:56:33;;;;;;;1.40;1.30;;;12.90;48.80;;;;;;5087176;27;45204;-69
2023/01/20 02:59:02;;;;;;;1.15;1.05;;;12.90;48.70;;;;;;5086448;27;46430;-70
2023/01/20 03:01:31;;;;;;;2.03;1.27;;;12.90;48.80;;;;;;5086610;27;45179;-69
2023/01/20 03:03:59;;;;;;;1.47;1.37;;;12.90;48.80;;;;;;5086742;27;45261;-70
2023/01/20 03:06:28;;;;;;;1.87;1.30;;;12.90;48.80;;;;;;5086748;27;45360;-69
2023/01/20 03:08:55;;;;;;;1.37;1.27;;;12.90;48.80;;;;;;5086257;27;46763;-70
2023/01/20 03:11:22;;;;;;;1.53;1.23;;;12.90;48.80;;;;;;5086463;27;45204;-70
2023/01/20 03:13:51;;;;;;;1.37;1.10;;;12.90;48.80;;;;;;5086575;27;45433;-69
2023/01/20 03:16:18;;;;;;;1.65;1.30;;;12.90;48.80;;;;;;5086691;27;45295;-69
2023/01/20 03:18:45;;;;;;;1.35;1.25;;;12.90;48.80;;;;;;5086054;27;46537;-70
2023/01/20 03:21:12;;;;;;;2.72;1.33;;;12.90;48.80;;;;;;5086232;27;45126;-70
2023/01/20 03:23:42;;;;;;;1.73;1.50;;;12.90;48.80;;;;;;5086105;27;45395;-69
2023/01/20 03:26:09;;;;;;;1.40;1.30;;;12.90;48.70;;;;;;5086471;27;45368;-69
2023/01/20 03:28:36;;;;;;;1.47;1.10;;;12.90;48.70;;;;;;5086060;27;46681;-69
2023/01/20 03:31:05;;;;;;;0.97;0.97;;;12.90;48.70;;;;;;5086258;27;45196;-69
2023/01/20 03:33:32;;;;;;;1.30;1.20;;;12.90;48.70;;;;;;5086310;27;45259;-69
2023/01/20 03:35:59;;;;;;;1.50;1.40;;;12.90;48.70;;;;;;5086369;27;45186;-68
2023/01/20 03:38:26;;;;;;;2.17;1.47;;;12.90;48.70;;;;;;5085743;27;46408;-68
2023/01/20 03:41:01;;;;;;;1.43;1.33;;;12.90;48.70;;;;;;5085385;27;45255;-69
2023/01/20 03:43:32;;;;;;;2.30;1.20;;;12.90;48.70;;;;;;5086250;27;45191;-69
2023/01/20 03:46:01;;;;;;;1.38;1.20;;;12.90;48.70;;;;;;5086167;27;45444;-69
2023/01/20 03:48:30;;;;;;;1.60;1.40;;;12.90;48.70;;;;;;5085709;27;46688;-68
2023/01/20 03:50:58;;;;;;;1.23;1.13;;;12.90;48.70;;;;;;5085931;27;45276;-68
2023/01/20 03:53:29;;;;;;;1.23;1.13;;;12.90;48.70;;;;;;5085940;27;45203;-68
2023/01/20 03:56:00;;;;;;;1.33;1.08;;;12.90;48.70;;;;;;5086094;27;45474;-68
2023/01/20 03:58:28;;;;;;;1.23;1.00;;;12.90;48.70;;;;;;5085705;27;46314;-68
2023/01/20 04:00:56;;;;;;;2.87;1.40;;;12.90;48.70;;;;;;5085749;27;45303;-69
2023/01/20 04:03:25;;;;;;;1.47;1.20;;;12.90;48.70;;;;;;5086034;27;45317;-68
2023/01/20 04:05:52;;;;;;;1.80;1.07;;;12.90;48.70;;;;;;5086000;27;45175;-68
2023/01/20 04:08:20;;;;;;;1.10;1.00;;;12.90;48.70;;;;;;5085553;27;47348;-68
2023/01/20 04:10:47;;;;;;;1.87;1.30;;;12.90;48.70;;;;;;5085569;27;45306;-68
2023/01/20 04:13:15;;;;;;;1.20;1.10;;;12.90;48.70;;;;;;5085841;27;45197;-68
2023/01/20 04:15:45;;;;;;;0.90;0.90;;;12.90;49.30;;;;;;5086200;27;45187;-68
2023/01/20 04:18:13;;;;;;;1.10;1.10;;;12.90;48.70;;;;;;5085352;27;48475;-68
2023/01/20 04:20:40;;;;;;;1.63;1.20;;;12.90;48.70;;;;;;5085810;27;45283;-68
2023/01/20 04:23:07;;;;;;;0.95;0.95;;;12.90;48.60;;;;;;5085435;27;45190;-68
2023/01/20 04:25:34;;;;;;;2.10;1.07;;;12.90;48.70;;;;;;5085575;27;45399;-68
2023/01/20 04:28:01;;;;;;;1.90;1.27;;;12.90;48.70;;;;;;5085171;27;45544;-68
2023/01/20 04:30:30;;;;;;;1.10;1.00;;;12.90;49.30;;;;;;5085072;27;45398;-68
2023/01/20 04:32:56;;;;;;;0.85;0.85;;;12.90;48.70;;;;;;5085218;27;45138;-68
2023/01/20 04:35:23;;;;;;;1.10;1.00;;;12.90;48.70;;;;;;5085405;27;45324;-70
2023/01/20 04:37:50;;;;;;;1.30;1.20;;;12.90;48.70;;;;;;5084994;27;45525;-69
2023/01/20 04:40:17;;;;;;;1.20;1.10;;;12.90;48.70;;;;;;5085252;27;45334;-70
2023/01/20 04:42:44;;;;;;;0.88;0.88;;;12.90;48.70;;;;;;5085252;27;45433;-69
2023/01/20 04:45:14;;;;;;;1.00;1.00;;;12.80;49.20;;;;;;5085489;27;45323;-69
2023/01/20 04:47:42;;;;;;;1.58;1.10;;;12.90;48.70;;;;;;5084964;27;45436;-69
2023/01/20 04:50:10;;;;;;;1.87;1.30;;;12.90;48.70;;;;;;5085191;27;45241;-69
2023/01/20 04:52:36;;;;;;;1.90;1.10;;;12.90;48.60;;;;;;5088600;27;45169;-69
2023/01/20 04:55:03;;;;;;;1.17;0.98;;;12.90;48.60;;;;;;5088834;27;45568;-69
2023/01/20 04:57:30;;;;;;;1.70;1.05;;;12.90;48.60;;;;;;5088338;27;45339;-69
2023/01/20 04:59:57;;;;;;;1.50;0.97;;;12.90;48.60;;;;;;5088398;27;45307;-69
2023/01/20 05:02:24;;;;;;;0.97;0.97;;;12.90;48.60;;;;;;5088568;27;45528;-69
2023/01/20 05:04:52;;;;;;;1.23;1.13;;;12.90;48.60;;;;;;5088922;27;45242;-69
2023/01/20 05:07:19;;;;;;;1.10;1.00;;;12.90;48.60;;;;;;5088183;27;46309;-70
2023/01/20 05:09:46;;;;;;;0.90;0.90;;;12.90;48.60;;;;;;5088335;27;45472;-69
2023/01/20 05:12:13;;;;;;;1.17;1.00;;;12.90;48.60;;;;;;5088551;27;45366;-69
2023/01/20 05:14:39;;;;;;;1.20;1.10;;;12.90;48.70;;;;;;5088628;27;45392;-69
2023/01/20 05:17:06;;;;;;;1.40;1.30;;;12.90;48.70;;;;;;5088047;27;46581;-69
2023/01/20 05:19:33;;;;;;;2.15;1.40;;;12.80;48.60;;;;;;5088277;27;45188;-69
2023/01/20 05:22:01;;;;;;;1.77;1.55;;;12.90;48.70;;;;;;5088251;27;45188;-69
2023/01/20 05:24:29;;;;;;;1.60;1.40;;;12.90;48.70;;;;;;5088131;27;45397;-69
2023/01/20 05:26:56;;;;;;;1.48;1.35;;;12.90;48.70;;;;;;5087785;27;46109;-69
2023/01/20 05:29:23;;;;;;;1.33;1.10;;;12.90;48.70;;;;;;5087936;27;45146;-69
2023/01/20 05:31:50;;;;;;;2.03;1.50;;;12.90;48.70;;;;;;5088186;27;45210;-69
2023/01/20 05:34:17;;;;;;;1.85;1.60;;;12.90;48.70;;;;;;5088165;27;45387;-69
2023/01/20 05:36:44;;;;;;;2.90;2.13;;;12.90;48.70;;;;;;5087750;27;45441;-69
2023/01/20 05:39:12;;;;;;;1.73;1.40;;;12.90;48.60;;;;;;5087839;27;45260;-69
2023/01/20 05:41:39;;;;;;;1.85;1.30;;;12.90;48.70;;;;;;5087814;27;45154;-68
2023/01/20 05:44:06;;;;;;;1.50;1.40;;;12.90;48.60;;;;;;5088000;27;45399;-69
2023/01/20 05:46:33;;;;;;;3.25;2.00;;;12.90;48.70;;;;;;5087560;27;46142;-69
2023/01/20 05:49:01;;;;;;;2.05;1.83;;;12.90;48.60;;;;;;5087532;27;45370;-69
2023/01/20 05:51:28;;;;;;;2.40;1.83;;;12.80;48.60;;;;;;5087926;27;45110;-69
2023/01/20 05:53:55;;;;;;;1.93;1.63;;;12.80;48.60;;;;;;5087897;27;45288;-69
2023/01/20 05:56:23;;;;;;;1.83;1.47;;;12.80;48.60;;;;;;5087600;27;46393;-69
2023/01/20 05:58:53;;;;;;;2.57;1.90;;;12.80;48.70;;;;;;5087437;27;45812;-69
2023/01/20 06:01:20;;;;;;;3.03;2.28;;;12.80;48.70;;;;;;5087599;27;45235;-69
2023/01/20 06:03:47;;;;;;;2.55;2.10;;;12.80;48.70;;;;;;5087158;27;45409;-69
2023/01/20 06:06:16;;;;;;;1.77;1.67;;;12.80;48.60;;;;;;5087340;27;45371;-69
2023/01/20 06:08:42;;;;;;;2.13;1.90;;;12.80;48.70;;;;;;5087320;27;45255;-69
2023/01/20 06:11:09;;;;;;;1.80;1.60;;;12.80;48.70;;;;;;5087444;27;45150;-69
2023/01/20 06:13:38;;;;;;;1.97;1.73;;;12.80;48.70;;;;;;5087524;27;45391;-69
2023/01/20 06:16:06;;;;;;;1.80;1.70;;;12.80;48.60;;;;;;5087168;27;45793;-69
2023/01/20 06:18:33;;;;;;;2.20;1.63;;;12.80;48.70;;;;;;5087159;27;45264;-69
2023/01/20 06:21:00;;;;;;;2.10;1.80;;;12.80;48.60;;;;;;5087343;27;45134;-69
2023/01/20 06:23:27;;;;;;;2.92;1.88;;;12.80;48.70;;;;;;5087295;27;45495;-70
2023/01/20 06:25:59;;;;;;;2.73;1.77;;;12.80;48.60;;;;;;5086945;27;45310;-69
2023/01/20 06:28:25;;;;;;;2.25;2.00;;;12.80;48.60;;;;;;5087035;27;45219;-69
2023/01/20 06:30:59;;;;;;;2.20;1.98;;;12.80;48.60;;;;;;5087218;27;45320;-69
2023/01/20 06:33:26;;;;;;;2.53;1.87;;;12.80;48.60;;;;;;5087365;27;45406;-69
2023/01/20 06:35:53;;;;;;;2.42;1.98;;;12.80;48.60;;;;;;5086895;27;45277;-69
2023/01/20 06:38:20;;;;;;;3.37;2.10;;;12.70;48.50;;;;;;5086810;27;45307;-69
2023/01/20 06:40:47;;;;;;;2.17;1.92;;;12.80;48.60;;;;;;5087269;27;45202;-69
2023/01/20 06:43:14;;;;;;;2.63;2.35;;;12.70;48.60;;;;;;5087114;27;45331;-69
2023/01/20 06:45:41;;;;;;;3.63;2.47;;;12.70;48.60;;;;;;5086873;27;45298;-69
2023/01/20 06:48:09;;;;;;;2.30;1.90;;;12.70;48.50;;;;;;5086543;27;45330;-69
2023/01/20 06:50:36;;;;;;;2.13;1.90;;;12.70;48.50;;;;;;5086946;27;45236;-69
2023/01/20 06:53:03;;;;;;;3.07;2.07;;;12.70;48.60;;;;;;5087004;27;45437;-69
2023/01/20 06:55:29;;;;;;;2.40;1.97;;;12.70;48.60;;;;;;5086535;27;45180;-68
2023/01/20 06:57:56;;;;;;;3.00;2.13;;;12.70;48.50;;;;;;5086565;27;45282;-69
2023/01/20 07:00:24;;;;;;;1.95;1.73;;;12.70;48.50;;;;;;5086807;27;45321;-69
2023/01/20 07:02:51;;;;;;;2.47;1.90;;;12.70;48.50;;;;;;5086877;27;45299;-69
2023/01/20 07:05:19;;;;;;;2.33;1.80;;;12.70;48.50;;;;;;5086445;27;46385;-70
2023/01/20 07:07:46;;;;;;;3.00;1.80;;;12.70;48.50;;;;;;5086354;27;45322;-69
2023/01/20 07:10:13;;;;;;;2.60;1.70;;;12.60;48.50;;;;;;5086478;27;45343;-69
2023/01/20 07:12:39;;;;;;;3.10;2.10;;;12.60;48.50;;;;;;5086775;27;45392;-69
2023/01/20 07:15:07;;;;;;;2.40;1.97;;;12.60;48.50;;;;;;5085150;27;46405;-69
2023/01/20 07:17:34;;;;;;;2.67;1.93;;;12.60;48.50;;;;;;5086289;27;45147;-69
2023/01/20 07:20:01;;;;;;;2.55;1.80;;;12.60;48.50;;;;;;5086555;27;45276;-69
2023/01/20 07:22:29;;;;;;;1.60;1.50;;;12.60;48.40;;;;;;5086381;27;45406;-69
2023/01/20 07:24:56;;;;;;;2.37;2.07;;;12.60;48.40;;;;;;5085510;27;45254;-69
2023/01/20 07:27:23;;;;;;;1.90;1.67;;;12.60;48.40;;;;;;5086337;27;45169;-68
2023/01/20 07:29:49;;;;;;;2.30;1.27;;;12.60;48.40;;;;;;5086245;27;45150;-69
2023/01/20 07:32:16;;;;;;;1.95;1.30;;;12.60;48.40;;;;;;5086409;27;45280;-69
2023/01/20 07:34:43;;;;;;;1.77;1.60;;;12.60;48.40;;;;;;5086170;27;47420;-69
2023/01/20 07:37:10;;;;;;;1.60;1.43;;;12.60;48.40;;;;;;5086066;27;45332;-69
2023/01/20 07:39:39;;;;;;;1.33;1.23;;;12.60;48.40;;;;;;5086131;27;45227;-69
2023/01/20 07:42:06;;;;;;;1.43;1.30;;;12.60;48.30;;;;;;5086255;27;45387;-69
2023/01/20 07:44:33;;;;;;;1.50;1.40;;;12.60;48.30;;;;;;5083172;27;45314;-69
2023/01/20 07:47:00;;;;;;;1.23;1.20;;;12.60;48.30;;;;;;5086024;27;47222;-69
2023/01/20 07:49:28;;;;;;;1.40;1.30;;;12.60;48.30;;;;;;5086030;27;45192;-68
2023/01/20 07:51:54;;;;;;;1.90;1.40;;;12.60;49.00;;;;;;5086123;27;45550;-68
2023/01/20 07:54:21;;;;;;;1.40;1.30;;;12.60;48.30;;;;;;5085797;27;45486;-69
2023/01/20 07:56:50;;;;;;;1.65;1.55;;;12.60;48.30;;;;;;5085777;27;45438;-69
2023/01/20 07:59:17;;;;;;;2.10;1.40;;;12.60;48.30;;;;;;5085828;27;45228;-68
2023/01/20 08:01:43;;;;;;;1.70;1.30;;;12.60;48.30;;;;;;5086162;27;45136;-69
2023/01/20 08:04:11;;;;;;;1.80;1.60;;;12.60;48.20;;;;;;5085639;27;45566;-69
2023/01/20 08:06:38;;;;;;;1.77;1.20;;;12.60;48.30;;;;;;5085679;27;45232;-69
2023/01/20 08:09:08;;;;;;;2.97;1.33;;;12.60;48.20;;;;;;5085799;27;45314;-69
2023/01/20 08:11:35;;;;;;;2.33;1.53;;;12.60;48.30;;;;;;5085888;27;45435;-69
2023/01/20 08:14:03;;;;;;;1.83;1.50;;;12.60;48.20;;;;;;5085489;27;45303;-69
2023/01/20 08:16:30;;;;;;;1.38;1.10;;;12.60;48.20;;;;;;5085566;27;45354;-69
2023/01/20 08:18:57;;;;;;;1.50;1.40;;;12.60;48.20;;;;;;5085559;27;45247;-69
2023/01/20 08:21:24;;;;;;;1.60;1.30;;;12.60;48.20;;;;;;5085932;27;45173;-69
2023/01/20 08:23:51;;;;;;;1.33;1.23;;;12.60;48.10;;;;;;5085303;27;46736;-69
2023/01/20 08:26:18;;;;;;;1.40;1.30;;;12.60;48.10;;;;;;5086985;27;45456;-68
2023/01/20 08:28:45;;;;;;;1.40;1.10;;;12.60;48.10;;;;;;5089089;27;45248;-68
2023/01/20 08:31:15;;;;;;;1.33;1.23;;;12.50;48.10;;;;;;5089152;27;44723;-68
2023/01/20 08:33:42;;;;;;;1.33;1.23;;;12.60;48.10;;;;;;5088766;27;46550;-68
2023/01/20 08:36:10;;;;;;;1.83;1.20;;;12.60;48.10;;;;;;5088765;27;45301;-68
2023/01/20 08:38:37;;;;;;;1.40;1.20;;;12.60;47.90;;;;;;5089031;27;45228;-68
2023/01/20 08:41:06;;;;;;;1.30;1.20;;;12.70;48.00;;;;;;5089086;27;45222;-68
2023/01/20 08:43:33;;;;;;;1.77;1.10;;;12.70;47.90;;;;;;5088575;27;46402;-68
2023/01/20 08:46:00;;;;;;;1.10;0.93;;;12.70;48.50;;;;;;5088789;27;45298;-68
2023/01/20 08:48:28;;;;;;;1.03;1.00;;;12.70;47.90;;;;;;5088605;27;45236;-68
2023/01/20 08:50:55;;;;;;;1.30;0.97;;;12.80;47.90;;;;;;5089012;27;45396;-68
2023/01/20 08:53:22;;;;;;;1.02;1.02;;;12.80;47.80;;;;;;5088608;27;46405;-68
2023/01/20 08:55:55;;;;;;;1.13;1.00;;;12.80;47.70;;;;;;5088842;27;45509;-69
2023/01/20 08:58:22;;;;;;;1.05;1.05;;;12.80;47.70;;;;;;5088762;27;45330;-69
2023/01/20 09:00:49;;;;;;;1.13;0.98;;;12.90;47.70;;;;;;5088709;27;45287;-68
2023/01/20 09:03:16;;;;;;;1.53;1.10;;;12.90;47.70;;;;;;5088313;27;45470;-69
2023/01/20 09:05:44;;;;;;;1.63;0.90;;;12.90;47.60;;;;;;5085887;27;45145;-69
2023/01/20 09:08:11;;;;;;;1.27;1.17;;;12.90;47.60;;;;;;5088386;27;45196;-68
2023/01/20 09:10:38;;;;;;;0.80;0.80;;;12.90;47.50;;;;;;5088606;27;45471;-69
2023/01/20 09:13:05;;;;;;;1.10;1.10;;;13.00;47.60;;;;;;5088244;27;45518;-69
2023/01/20 09:15:32;;;;;;;2.60;1.20;;;12.90;47.50;;;;;;5088372;27;45406;-68
2023/01/20 09:17:58;;;;;;;1.42;1.05;;;13.00;47.50;;;;;;5088312;27;45368;-69
2023/01/20 09:20:26;;;;;;;1.70;1.10;;;13.00;47.50;;;;;;5088520;27;45408;-69
2023/01/20 09:22:54;;;;;;;2.03;1.10;;;13.00;48.10;;;;;;5088031;27;45580;-69
2023/01/20 09:25:21;;;;;;;1.63;1.00;;;13.00;47.50;;;;;;5087937;27;45311;-68
2023/01/20 09:27:47;;;;;;;1.33;1.10;;;13.00;47.50;;;;;;5088082;27;45254;-69
2023/01/20 09:30:14;;;;;;;1.08;0.80;;;13.10;47.40;;;;;;5088607;27;45395;-69
2023/01/20 09:32:41;;;;;;;1.20;1.10;;;13.00;47.30;;;;;;5087971;27;46395;-69
2023/01/20 09:35:09;;;;;;;1.67;1.00;;;13.10;47.40;;;;;;5088057;27;45394;-69
2023/01/20 09:46:14;;;;;;;0.90;0.90;;;13.10;47.30;;;;;;5088277;28;45363;-69
2023/01/20 09:54:18;;;;;;;1.85;1.30;;;13.10;47.30;;;;;;5064813;28;45980;-69
2023/01/20 09:56:47;;;;;;;3.83;1.30;;;13.10;47.30;;;;;;5084281;28;45407;-69
2023/01/20 09:59:16;;;;;;;4.32;1.33;;;13.10;47.90;;;;;;5087179;27;45309;-70
2023/01/20 10:01:44;;;;;;;2.30;1.13;;;13.10;48.30;;;;;;5084645;27;45288;-70
2023/01/20 10:04:13;;;;;;;2.43;1.23;;;13.10;48.30;;;;;;5086812;27;45482;-69
2023/01/20 10:06:41;;;;;;;2.77;1.23;;;13.20;48.30;;;;;;5086690;27;45263;-69
2023/01/20 10:09:11;;;;;;;1.60;1.37;;;13.20;48.30;;;;;;5086965;27;45280;-69
2023/01/20 10:11:39;;;;;;;2.72;1.27;;;13.20;48.30;;;;;;5087207;27;45386;-69
2023/01/20 10:14:17;;;;;;;2.13;1.57;;;13.20;48.30;;;;;;5086710;27;46409;-70
2023/01/20 10:16:47;;;;;;;3.07;1.40;;;13.20;48.20;;;;;;5086909;27;45259;-69
2023/01/20 10:19:16;;;;;;;5.80;1.80;;;13.30;48.10;;;;;;5086827;27;45365;-70
2023/01/20 10:21:45;;;;;;;2.37;1.30;;;13.30;48.10;;;;;;5087287;27;45251;-70
2023/01/20 10:24:14;;;;;;;2.47;1.30;;;13.30;48.30;;;;;;5087061;27;45527;-70
2023/01/20 10:26:44;;;;;;;5.78;1.35;;;13.30;48.30;;;;;;5087082;27;45342;-71
2023/01/20 10:29:16;;;;;;;6.93;1.48;;;13.40;48.30;;;;;;5087002;27;45208;-69
2023/01/20 10:31:44;;;;;;;2.67;1.53;;;13.40;48.40;;;;;;5087369;27;45709;-69
2023/01/20 10:34:12;;;;;;;2.85;1.80;;;13.40;48.30;;;;;;5086869;27;46369;-70
2023/01/20 10:36:40;;;;;;;3.33;1.88;;;13.40;48.30;;;;;;5085917;27;45634;-69
2023/01/20 10:39:12;;;;;;;3.33;1.70;;;13.40;49.00;;;;;;5087126;27;45246;-70
2023/01/20 10:41:41;;;;;;;2.20;1.70;;;13.40;48.60;;;;;;5087154;27;45351;-70
2023/01/20 10:44:11;;;;;;;6.15;1.92;;;13.40;48.60;;;;;;5086643;27;46492;-70
2023/01/20 10:46:57;;;;;;;5.28;1.70;;;13.50;48.50;;;;;;5086789;27;45272;-70
2023/01/20 10:49:57;;;;;;;1.73;1.50;;;13.40;48.40;;;;;;5086095;27;45351;-70
2023/01/20 10:52:32;;;;;;;7.60;1.90;;;13.40;48.40;;;;;;5063550;27;45226;-70
2023/01/20 10:55:04;;;;;;;2.37;1.60;;;13.50;48.40;;;;;;5086736;27;45394;-70
2023/01/20 10:57:31;;;;;;;3.13;1.88;;;13.40;48.30;;;;;;5086477;27;45370;-70
2023/01/20 10:59:59;;;;;;;3.00;2.00;;;13.50;48.30;;;;;;5086755;27;45322;-70
2023/01/20 11:02:29;;;;;;;4.93;2.20;;;13.50;48.20;;;;;;5086810;27;45419;-70
2023/01/20 11:04:59;;;;;;;3.05;1.50;;;13.50;48.20;;;;;;5086385;27;45494;-71
2023/01/20 11:07:26;;;;;;;2.63;1.92;;;13.50;48.10;;;;;;5086389;27;45314;-70
2023/01/20 11:09:53;;;;;;;3.00;2.08;;;13.50;48.10;;;;;;5086551;27;45147;-70
2023/01/20 11:12:22;;;;;;;7.27;2.40;;;13.50;48.10;;;;;;5086729;27;45311;-70
2023/01/20 11:14:48;;;;;;;3.42;2.17;;;13.50;48.10;;;;;;5086257;27;45557;-70
2023/01/20 11:17:17;;;;;;;5.80;1.80;;;13.60;48.10;;;;;;5086337;27;45271;-70
2023/01/20 11:19:52;;;;;;;4.05;2.15;;;13.60;48.10;;;;;;5086607;27;45228;-70
2023/01/20 11:22:25;;;;;;;7.97;1.98;;;13.60;48.10;;;;;;5086498;27;45330;-70
2023/01/20 11:24:54;;;;;;;4.18;1.95;;;13.60;48.00;;;;;;5085923;27;47267;-70
2023/01/20 11:27:22;;;;;;;4.88;2.38;;;13.70;47.90;;;;;;5086118;27;45300;-69
2023/01/20 11:29:49;;;;;;;4.78;2.45;;;13.80;47.70;;;;;;5084242;27;45180;-70
2023/01/20 11:32:31;;;;;;;2.10;1.83;;;14.00;47.40;;;;;;5086515;27;45127;-69
2023/01/20 11:35:00;;;;;;;2.77;2.00;;;14.10;47.30;;;;;;5086227;27;47265;-69
2023/01/20 11:37:27;;;;;;;2.53;2.17;;;14.20;47.30;;;;;;5079427;27;45460;-70
2023/01/20 11:40:02;;;;;;;4.72;2.00;;;14.40;47.10;;;;;;5065981;28;45296;-70
2023/01/20 11:42:29;;;;;;;6.07;2.20;;;14.50;47.40;;;;;;5066236;28;45380;-71
2023/01/20 11:44:57;;;;;;;5.07;2.70;;;14.60;46.80;;;;;;5084922;28;46656;-73
2023/01/20 11:47:26;;;;;;;6.07;2.55;;;14.70;47.20;;;;;;5086142;28;45199;-72
2023/01/20 11:50:18;;;;;;;5.78;2.30;;;14.70;47.20;;;;;;5082500;28;45366;-72
2023/01/20 11:52:46;;;;;;;7.97;2.47;;;14.80;47.20;;;;;;5083164;27;45530;-72
2023/01/20 11:55:19;;;;;;;7.50;2.63;;;15.00;47.20;;;;;;5086098;27;45489;-71
2023/01/20 11:57:48;;;;;;;9.45;2.90;;;15.10;47.20;;;;;;5086311;27;45168;-71
2023/01/20 12:00:40;;;;;;;3.30;2.40;;;15.20;46.80;;;;;;5086215;27;45342;-70
2023/01/20 12:03:33;;;;;;;6.70;2.58;;;15.30;46.70;;;;;;5079417;27;45249;-71
2023/01/20 12:06:02;;;;;;;6.60;2.70;;;15.40;46.30;;;;;;5089061;27;45578;-71
2023/01/20 12:08:32;;;;;;;7.75;2.38;;;15.50;46.00;;;;;;5086927;27;45270;-69
2023/01/20 12:11:02;;;;;;;3.95;2.30;;;15.50;46.30;;;;;;5089867;27;45343;-72
2023/01/20 12:13:30;;;;;;;2.97;2.40;;;15.60;46.40;;;;;;5089642;27;45249;-72
2023/01/20 12:16:00;;;;;;;9.45;2.83;;;15.70;46.40;;;;;;5089283;27;46378;-72
2023/01/20 12:18:35;;;;;;;9.88;3.25;;;15.80;45.90;;;;;;5089412;27;45286;-72
2023/01/20 12:21:06;;;;;;;4.95;2.80;;;15.90;45.50;;;;;;5088293;27;45513;-72
2023/01/20 12:23:38;;;;;;;8.98;2.85;;;16.00;46.50;;;;;;5086950;27;45410;-72
2023/01/20 12:26:05;;;;;;;11.40;3.20;;;16.20;46.60;;;;;;5087475;27;46495;-70
2023/01/20 12:28:35;;;;;;;5.28;2.90;;;16.20;45.60;;;;;;5088954;27;45435;-70
2023/01/20 12:31:02;;;;;;;5.40;2.95;;;16.30;45.20;;;;;;5089092;27;45192;-71
2023/01/20 12:33:30;;;;;;;5.60;2.92;;;16.30;44.80;;;;;;5089189;27;45162;-70
2023/01/20 12:36:11;;;;;;;8.48;3.22;;;16.20;44.60;;;;;;5088834;27;46492;-70
2023/01/20 12:38:41;;;;;;;6.47;3.00;;;16.00;44.60;;;;;;5088732;27;45312;-70
2023/01/20 12:41:12;;;;;;;4.55;3.15;;;16.00;44.60;;;;;;5087778;27;45423;-71
2023/01/20 12:43:47;;;;;;;5.20;3.10;;;16.10;44.50;;;;;;5088491;27;45380;-70
2023/01/20 12:46:38;;;;;;;6.03;3.17;;;16.20;44.30;;;;;;5088450;27;45490;-70
2023/01/20 12:49:15;;;;;;;3.70;2.90;;;16.30;44.10;;;;;;5088561;27;45312;-71
2023/01/20 12:51:49;;;;;;;3.03;2.63;;;16.40;44.00;;;;;;5088746;27;45219;-71
2023/01/20 12:54:40;;;;;;;5.97;2.92;;;16.40;43.90;;;;;;5088845;27;45156;-71
2023/01/20 12:57:11;;;;;;;5.82;2.65;;;16.40;43.80;;;;;;5088317;27;45406;-68
2023/01/20 12:59:42;;;;;;;4.88;2.70;;;16.40;43.90;;;;;;5088493;27;45150;-69
2023/01/20 13:02:41;;;;;;;6.50;2.88;;;16.40;43.80;;;;;;5088693;27;45267;-71
2023/01/20 13:05:41;;;;;;;4.10;2.83;;;16.50;43.70;;;;;;5065403;27;45535;-68
2023/01/20 13:08:13;;;;;;;5.80;3.00;;;16.50;43.60;;;;;;5062568;27;45305;-71
2023/01/20 13:10:57;;;;;;;4.13;2.25;;;16.50;43.60;;;;;;5086921;28;45380;-70
2023/01/20 13:13:31;;;;;;;3.63;2.55;;;16.40;43.80;;;;;;5085458;27;45308;-70